sensor_id;sensor_type;location;lat;lon;timestamp;P1;durP1;ratioP1;P2;durP2;ratioP2
9150;SDS011;4610;50.006;7.490;2023-04-24T00:00:57;3.00;;;2.10;;
9150;SDS011;4610;50.006;7.490;2023-04-24T00:03:27;5.03;;;2.10;;
9150;SDS011;4610;50.006;7.490;2023-04-24T00:05:54;2.73;;;2.20;;
9150;SDS011;4610;50.006;7.490;2023-04-24T00:08:21;3.07;;;2.30;;
9150;SDS011;4610;50.006;7.490;2023-04-24T00:10:48;3.73;;;2.20;;
9150;SDS011;4610;50.006;7.490;2023-04-24T00:13:17;6.10;;;2.37;;
9150;SDS011;4610;50.006;7.490;2023-04-24T00:15:44;5.20;;;2.60;;
9150;SDS011;4610;50.006;7.490;2023-04-24T00:18:10;7.40;;;2.97;;
9150;SDS011;4610;50.006;7.490;2023-04-24T00:20:38;6.80;;;2.57;;
9150;SDS011;4610;50.006;7.490;2023-04-24T00:23:05;5.20;;;2.70;;
9150;SDS011;4610;50.006;7.490;2023-04-24T00:25:32;4.57;;;2.87;;
9150;SDS011;4610;50.006;7.490;2023-04-24T00:27:59;3.10;;;2.80;;
9150;SDS011;4610;50.006;7.490;2023-04-24T00:30:26;3.37;;;2.40;;
9150;SDS011;4610;50.006;7.490;2023-04-24T00:32:52;3.33;;;2.70;;
9150;SDS011;4610;50.006;7.490;2023-04-24T00:35:19;5.47;;;1.67;;
9150;SDS011;4610;50.006;7.490;2023-04-24T00:37:47;1.90;;;1.50;;
9150;SDS011;4610;50.006;7.490;2023-04-24T00:40:14;1.80;;;1.50;;
9150;SDS011;4610;50.006;7.490;2023-04-24T00:42:42;1.27;;;1.17;;
9150;SDS011;4610;50.006;7.490;2023-04-24T00:45:10;2.23;;;1.00;;
9150;SDS011;4610;50.006;7.490;2023-04-24T00:47:37;0.70;;;0.70;;
9150;SDS011;4610;50.006;7.490;2023-04-24T00:50:05;0.70;;;0.70;;
9150;SDS011;4610;50.006;7.490;2023-04-24T00:52:33;1.27;;;0.70;;
9150;SDS011;4610;50.006;7.490;2023-04-24T00:55:02;0.70;;;0.70;;
9150;SDS011;4610;50.006;7.490;2023-04-24T00:57:30;1.60;;;0.80;;
9150;SDS011;4610;50.006;7.490;2023-04-24T00:59:57;0.57;;;0.50;;
9150;SDS011;4610;50.006;7.490;2023-04-24T01:02:24;0.87;;;0.43;;
9150;SDS011;4610;50.006;7.490;2023-04-24T01:04:51;0.57;;;0.37;;
9150;SDS011;4610;50.006;7.490;2023-04-24T01:07:19;0.60;;;0.60;;
9150;SDS011;4610;50.006;7.490;2023-04-24T01:09:47;0.43;;;0.43;;
9150;SDS011;4610;50.006;7.490;2023-04-24T01:12:17;0.50;;;0.50;;
9150;SDS011;4610;50.006;7.490;2023-04-24T01:14:44;1.10;;;0.70;;
9150;SDS011;4610;50.006;7.490;2023-04-24T01:17:11;1.53;;;0.87;;
9150;SDS011;4610;50.006;7.490;2023-04-24T01:19:38;1.13;;;0.77;;
9150;SDS011;4610;50.006;7.490;2023-04-24T01:22:09;1.00;;;0.90;;
9150;SDS011;4610;50.006;7.490;2023-04-24T01:24:37;0.80;;;0.80;;
9150;SDS011;4610;50.006;7.490;2023-04-24T01:27:04;2.30;;;0.93;;
9150;SDS011;4610;50.006;7.490;2023-04-24T01:29:31;1.00;;;0.80;;
9150;SDS011;4610;50.006;7.490;2023-04-24T01:31:58;0.90;;;0.90;;
9150;SDS011;4610;50.006;7.490;2023-04-24T01:34:25;2.20;;;0.80;;
9150;SDS011;4610;50.006;7.490;2023-04-24T01:36:52;0.70;;;0.70;;
9150;SDS011;4610;50.006;7.490;2023-04-24T01:39:21;0.80;;;0.80;;
9150;SDS011;4610;50.006;7.490;2023-04-24T01:41:50;1.30;;;1.20;;
9150;SDS011;4610;50.006;7.490;2023-04-24T01:44:17;2.57;;;1.40;;
9150;SDS011;4610;50.006;7.490;2023-04-24T01:46:44;2.80;;;1.20;;
9150;SDS011;4610;50.006;7.490;2023-04-24T01:49:11;1.63;;;1.20;;
9150;SDS011;4610;50.006;7.490;2023-04-24T01:51:38;1.63;;;1.00;;
9150;SDS011;4610;50.006;7.490;2023-04-24T01:54:05;1.73;;;1.10;;
9150;SDS011;4610;50.006;7.490;2023-04-24T01:56:34;1.37;;;1.20;;
9150;SDS011;4610;50.006;7.490;2023-04-24T01:59:01;1.30;;;1.20;;
9150;SDS011;4610;50.006;7.490;2023-04-24T02:01:32;1.67;;;1.40;;
9150;SDS011;4610;50.006;7.490;2023-04-24T02:04:00;1.30;;;1.20;;
9150;SDS011;4610;50.006;7.490;2023-04-24T02:06:27;1.63;;;1.37;;
9150;SDS011;4610;50.006;7.490;2023-04-24T02:08:56;2.23;;;1.57;;
9150;SDS011;4610;50.006;7.490;2023-04-24T02:11:23;1.73;;;1.30;;
9150;SDS011;4610;50.006;7.490;2023-04-24T02:13:51;5.27;;;1.60;;
9150;SDS011;4610;50.006;7.490;2023-04-24T02:16:18;1.60;;;1.20;;
9150;SDS011;4610;50.006;7.490;2023-04-24T02:18:45;3.57;;;1.47;;
9150;SDS011;4610;50.006;7.490;2023-04-24T02:21:12;2.00;;;1.40;;
9150;SDS011;4610;50.006;7.490;2023-04-24T02:23:39;2.83;;;1.57;;
9150;SDS011;4610;50.006;7.490;2023-04-24T02:26:06;1.60;;;1.50;;
9150;SDS011;4610;50.006;7.490;2023-04-24T02:28:32;2.73;;;1.60;;
9150;SDS011;4610;50.006;7.490;2023-04-24T02:31:01;2.33;;;1.70;;
9150;SDS011;4610;50.006;7.490;2023-04-24T02:33:27;2.67;;;1.63;;
9150;SDS011;4610;50.006;7.490;2023-04-24T02:35:54;2.70;;;1.70;;
9150;SDS011;4610;50.006;7.490;2023-04-24T02:38:21;3.80;;;1.50;;
9150;SDS011;4610;50.006;7.490;2023-04-24T02:40:47;1.97;;;1.50;;
9150;SDS011;4610;50.006;7.490;2023-04-24T02:43:14;1.80;;;1.57;;
9150;SDS011;4610;50.006;7.490;2023-04-24T02:45:41;1.67;;;1.57;;
9150;SDS011;4610;50.006;7.490;2023-04-24T02:48:09;1.80;;;1.60;;
9150;SDS011;4610;50.006;7.490;2023-04-24T02:50:36;2.00;;;1.53;;
9150;SDS011;4610;50.006;7.490;2023-04-24T02:53:03;2.57;;;1.70;;
9150;SDS011;4610;50.006;7.490;2023-04-24T02:55:29;1.80;;;1.60;;
9150;SDS011;4610;50.006;7.490;2023-04-24T02:57:56;2.07;;;1.80;;
9150;SDS011;4610;50.006;7.490;2023-04-24T03:00:23;2.07;;;1.87;;
9150;SDS011;4610;50.006;7.490;2023-04-24T03:02:50;4.67;;;2.10;;
9150;SDS011;4610;50.006;7.490;2023-04-24T03:05:18;3.00;;;2.30;;
9150;SDS011;4610;50.006;7.490;2023-04-24T03:07:45;3.37;;;2.30;;
9150;SDS011;4610;50.006;7.490;2023-04-24T03:10:11;3.27;;;2.13;;
9150;SDS011;4610;50.006;7.490;2023-04-24T03:12:38;3.63;;;2.30;;
9150;SDS011;4610;50.006;7.490;2023-04-24T03:15:06;2.90;;;2.20;;
9150;SDS011;4610;50.006;7.490;2023-04-24T03:17:33;3.87;;;2.20;;
9150;SDS011;4610;50.006;7.490;2023-04-24T03:20:00;4.20;;;2.30;;
9150;SDS011;4610;50.006;7.490;2023-04-24T03:22:28;2.40;;;2.03;;
9150;SDS011;4610;50.006;7.490;2023-04-24T03:24:55;5.63;;;2.43;;
9150;SDS011;4610;50.006;7.490;2023-04-24T03:27:22;3.43;;;2.00;;
9150;SDS011;4610;50.006;7.490;2023-04-24T03:29:48;2.63;;;1.93;;
9150;SDS011;4610;50.006;7.490;2023-04-24T03:32:18;3.27;;;2.33;;
9150;SDS011;4610;50.006;7.490;2023-04-24T03:34:45;2.33;;;2.03;;
9150;SDS011;4610;50.006;7.490;2023-04-24T03:37:12;2.73;;;2.10;;
9150;SDS011;4610;50.006;7.490;2023-04-24T03:39:40;3.40;;;2.20;;
9150;SDS011;4610;50.006;7.490;2023-04-24T03:42:07;2.80;;;2.23;;
9150;SDS011;4610;50.006;7.490;2023-04-24T03:44:34;7.87;;;2.40;;
9150;SDS011;4610;50.006;7.490;2023-04-24T03:47:01;3.10;;;2.50;;
9150;SDS011;4610;50.006;7.490;2023-04-24T03:49:28;3.20;;;2.40;;
9150;SDS011;4610;50.006;7.490;2023-04-24T03:51:54;2.50;;;2.00;;
9150;SDS011;4610;50.006;7.490;2023-04-24T03:54:21;8.00;;;2.50;;
9150;SDS011;4610;50.006;7.490;2023-04-24T03:56:49;3.10;;;2.13;;
9150;SDS011;4610;50.006;7.490;2023-04-24T03:59:16;4.77;;;2.23;;
9150;SDS011;4610;50.006;7.490;2023-04-24T04:01:43;2.73;;;1.90;;
9150;SDS011;4610;50.006;7.490;2023-04-24T04:04:10;2.83;;;2.40;;
9150;SDS011;4610;50.006;7.490;2023-04-24T04:06:37;5.30;;;2.60;;
9150;SDS011;4610;50.006;7.490;2023-04-24T04:09:04;3.80;;;2.60;;
9150;SDS011;4610;50.006;7.490;2023-04-24T04:11:32;5.00;;;2.60;;
9150;SDS011;4610;50.006;7.490;2023-04-24T04:14:00;3.40;;;2.73;;
9150;SDS011;4610;50.006;7.490;2023-04-24T04:16:26;5.17;;;3.03;;
9150;SDS011;4610;50.006;7.490;2023-04-24T04:18:53;3.47;;;2.60;;
9150;SDS011;4610;50.006;7.490;2023-04-24T04:21:20;3.33;;;2.90;;
9150;SDS011;4610;50.006;7.490;2023-04-24T04:23:47;3.13;;;2.83;;
9150;SDS011;4610;50.006;7.490;2023-04-24T04:26:14;3.20;;;2.90;;
9150;SDS011;4610;50.006;7.490;2023-04-24T04:28:41;5.07;;;2.87;;
9150;SDS011;4610;50.006;7.490;2023-04-24T04:31:11;3.93;;;3.20;;
9150;SDS011;4610;50.006;7.490;2023-04-24T04:33:37;4.93;;;3.07;;
9150;SDS011;4610;50.006;7.490;2023-04-24T04:36:04;5.50;;;3.43;;
9150;SDS011;4610;50.006;7.490;2023-04-24T04:38:32;8.90;;;4.17;;
9150;SDS011;4610;50.006;7.490;2023-04-24T04:41:00;5.10;;;3.43;;
9150;SDS011;4610;50.006;7.490;2023-04-24T04:43:27;4.50;;;3.83;;
9150;SDS011;4610;50.006;7.490;2023-04-24T04:45:54;6.20;;;3.63;;
9150;SDS011;4610;50.006;7.490;2023-04-24T04:48:22;4.67;;;3.30;;
9150;SDS011;4610;50.006;7.490;2023-04-24T04:50:49;5.83;;;3.23;;
9150;SDS011;4610;50.006;7.490;2023-04-24T04:53:16;8.40;;;4.00;;
9150;SDS011;4610;50.006;7.490;2023-04-24T04:55:42;6.47;;;3.80;;
9150;SDS011;4610;50.006;7.490;2023-04-24T04:58:09;7.07;;;4.30;;
9150;SDS011;4610;50.006;7.490;2023-04-24T05:00:36;6.20;;;3.70;;
9150;SDS011;4610;50.006;7.490;2023-04-24T05:03:03;5.90;;;3.57;;
9150;SDS011;4610;50.006;7.490;2023-04-24T05:05:31;5.23;;;3.83;;
9150;SDS011;4610;50.006;7.490;2023-04-24T05:07:58;5.47;;;4.07;;
9150;SDS011;4610;50.006;7.490;2023-04-24T05:10:25;5.50;;;4.13;;
9150;SDS011;4610;50.006;7.490;2023-04-24T05:12:51;4.73;;;3.73;;
9150;SDS011;4610;50.006;7.490;2023-04-24T05:15:18;5.43;;;3.70;;
9150;SDS011;4610;50.006;7.490;2023-04-24T05:17:45;6.27;;;4.30;;
9150;SDS011;4610;50.006;7.490;2023-04-24T05:20:12;5.17;;;4.00;;
9150;SDS011;4610;50.006;7.490;2023-04-24T05:22:41;7.27;;;4.33;;
9150;SDS011;4610;50.006;7.490;2023-04-24T05:25:08;8.57;;;4.00;;
9150;SDS011;4610;50.006;7.490;2023-04-24T05:27:35;5.17;;;3.90;;
9150;SDS011;4610;50.006;7.490;2023-04-24T05:30:02;6.30;;;4.17;;
9150;SDS011;4610;50.006;7.490;2023-04-24T05:32:29;10.53;;;4.67;;
9150;SDS011;4610;50.006;7.490;2023-04-24T05:34:56;5.27;;;4.30;;
9150;SDS011;4610;50.006;7.490;2023-04-24T05:37:23;7.20;;;4.37;;
9150;SDS011;4610;50.006;7.490;2023-04-24T05:39:51;8.67;;;4.70;;
9150;SDS011;4610;50.006;7.490;2023-04-24T05:42:18;6.17;;;4.80;;
9150;SDS011;4610;50.006;7.490;2023-04-24T05:44:44;7.07;;;4.83;;
9150;SDS011;4610;50.006;7.490;2023-04-24T05:47:11;6.90;;;4.47;;
9150;SDS011;4610;50.006;7.490;2023-04-24T05:49:38;5.77;;;4.70;;
9150;SDS011;4610;50.006;7.490;2023-04-24T05:52:05;3.43;;;3.07;;
9150;SDS011;4610;50.006;7.490;2023-04-24T05:54:33;10.90;;;7.63;;
9150;SDS011;4610;50.006;7.490;2023-04-24T05:57:01;7.73;;;4.93;;
9150;SDS011;4610;50.006;7.490;2023-04-24T05:59:32;6.97;;;4.63;;
9150;SDS011;4610;50.006;7.490;2023-04-24T06:01:59;6.70;;;4.37;;
9150;SDS011;4610;50.006;7.490;2023-04-24T06:04:26;6.33;;;4.50;;
9150;SDS011;4610;50.006;7.490;2023-04-24T06:06:53;6.20;;;4.30;;
9150;SDS011;4610;50.006;7.490;2023-04-24T06:09:21;7.43;;;4.00;;
9150;SDS011;4610;50.006;7.490;2023-04-24T06:11:48;7.07;;;4.00;;
9150;SDS011;4610;50.006;7.490;2023-04-24T06:14:19;6.47;;;4.07;;
9150;SDS011;4610;50.006;7.490;2023-04-24T06:16:46;5.07;;;3.87;;
9150;SDS011;4610;50.006;7.490;2023-04-24T06:19:13;6.30;;;3.90;;
9150;SDS011;4610;50.006;7.490;2023-04-24T06:21:39;4.53;;;3.50;;
9150;SDS011;4610;50.006;7.490;2023-04-24T06:24:06;3.80;;;3.33;;
9150;SDS011;4610;50.006;7.490;2023-04-24T06:26:33;5.43;;;3.73;;
9150;SDS011;4610;50.006;7.490;2023-04-24T06:29:00;5.63;;;4.10;;
9150;SDS011;4610;50.006;7.490;2023-04-24T06:31:28;3.97;;;3.40;;
9150;SDS011;4610;50.006;7.490;2023-04-24T06:33:55;5.17;;;3.70;;
9150;SDS011;4610;50.006;7.490;2023-04-24T06:36:21;5.47;;;3.90;;
9150;SDS011;4610;50.006;7.490;2023-04-24T06:38:48;4.00;;;3.40;;
9150;SDS011;4610;50.006;7.490;2023-04-24T06:41:15;3.80;;;3.40;;
9150;SDS011;4610;50.006;7.490;2023-04-24T06:43:42;5.80;;;3.57;;
9150;SDS011;4610;50.006;7.490;2023-04-24T06:46:09;5.57;;;3.17;;
9150;SDS011;4610;50.006;7.490;2023-04-24T06:48:38;4.87;;;3.30;;
9150;SDS011;4610;50.006;7.490;2023-04-24T06:51:05;4.30;;;3.30;;
9150;SDS011;4610;50.006;7.490;2023-04-24T06:53:32;4.47;;;3.00;;
9150;SDS011;4610;50.006;7.490;2023-04-24T06:55:58;4.10;;;3.00;;
9150;SDS011;4610;50.006;7.490;2023-04-24T06:58:25;3.17;;;2.70;;
9150;SDS011;4610;50.006;7.490;2023-04-24T07:00:52;3.80;;;2.97;;
9150;SDS011;4610;50.006;7.490;2023-04-24T07:03:19;6.20;;;2.87;;
9150;SDS011;4610;50.006;7.490;2023-04-24T07:05:47;3.47;;;3.07;;
9150;SDS011;4610;50.006;7.490;2023-04-24T07:08:14;3.70;;;2.80;;
9150;SDS011;4610;50.006;7.490;2023-04-24T07:10:43;3.30;;;2.70;;
9150;SDS011;4610;50.006;7.490;2023-04-24T07:13:09;5.23;;;3.40;;
9150;SDS011;4610;50.006;7.490;2023-04-24T07:15:36;5.57;;;3.23;;
9150;SDS011;4610;50.006;7.490;2023-04-24T07:18:04;4.47;;;3.40;;
9150;SDS011;4610;50.006;7.490;2023-04-24T07:20:31;4.13;;;3.23;;
9150;SDS011;4610;50.006;7.490;2023-04-24T07:23:00;5.70;;;3.77;;
9150;SDS011;4610;50.006;7.490;2023-04-24T07:25:27;3.83;;;3.00;;
9150;SDS011;4610;50.006;7.490;2023-04-24T07:27:54;4.20;;;2.97;;
9150;SDS011;4610;50.006;7.490;2023-04-24T07:30:20;5.00;;;2.77;;
9150;SDS011;4610;50.006;7.490;2023-04-24T07:32:47;4.77;;;3.33;;
9150;SDS011;4610;50.006;7.490;2023-04-24T07:35:14;3.40;;;2.70;;
9150;SDS011;4610;50.006;7.490;2023-04-24T07:37:41;5.00;;;3.00;;
9150;SDS011;4610;50.006;7.490;2023-04-24T07:40:12;3.20;;;2.83;;
9150;SDS011;4610;50.006;7.490;2023-04-24T07:42:39;6.37;;;3.10;;
9150;SDS011;4610;50.006;7.490;2023-04-24T07:45:06;3.90;;;2.80;;
9150;SDS011;4610;50.006;7.490;2023-04-24T07:47:33;4.50;;;3.00;;
9150;SDS011;4610;50.006;7.490;2023-04-24T07:50:01;5.53;;;2.93;;
9150;SDS011;4610;50.006;7.490;2023-04-24T07:52:28;5.03;;;2.90;;
9150;SDS011;4610;50.006;7.490;2023-04-24T07:54:55;4.30;;;2.90;;
9150;SDS011;4610;50.006;7.490;2023-04-24T07:57:26;4.53;;;2.83;;
9150;SDS011;4610;50.006;7.490;2023-04-24T07:59:53;2.77;;;2.50;;
9150;SDS011;4610;50.006;7.490;2023-04-24T08:02:20;3.60;;;2.70;;
9150;SDS011;4610;50.006;7.490;2023-04-24T08:04:51;3.33;;;2.50;;
9150;SDS011;4610;50.006;7.490;2023-04-24T08:07:18;4.17;;;2.87;;
9150;SDS011;4610;50.006;7.490;2023-04-24T08:09:44;4.27;;;2.77;;
9150;SDS011;4610;50.006;7.490;2023-04-24T08:12:11;2.90;;;2.60;;
9150;SDS011;4610;50.006;7.490;2023-04-24T08:14:39;3.23;;;2.70;;
9150;SDS011;4610;50.006;7.490;2023-04-24T08:17:06;3.53;;;2.50;;
9150;SDS011;4610;50.006;7.490;2023-04-24T08:19:33;3.90;;;2.90;;
9150;SDS011;4610;50.006;7.490;2023-04-24T08:22:00;3.87;;;2.50;;
9150;SDS011;4610;50.006;7.490;2023-04-24T08:24:27;3.70;;;2.60;;
9150;SDS011;4610;50.006;7.490;2023-04-24T08:26:54;4.23;;;2.60;;
9150;SDS011;4610;50.006;7.490;2023-04-24T08:29:22;4.00;;;2.40;;
9150;SDS011;4610;50.006;7.490;2023-04-24T08:31:51;2.47;;;2.20;;
9150;SDS011;4610;50.006;7.490;2023-04-24T08:34:19;4.63;;;2.50;;
9150;SDS011;4610;50.006;7.490;2023-04-24T08:36:46;4.23;;;2.20;;
9150;SDS011;4610;50.006;7.490;2023-04-24T08:39:13;4.00;;;2.20;;
9150;SDS011;4610;50.006;7.490;2023-04-24T08:41:41;2.60;;;2.20;;
9150;SDS011;4610;50.006;7.490;2023-04-24T08:44:10;4.67;;;2.70;;
9150;SDS011;4610;50.006;7.490;2023-04-24T08:46:37;2.40;;;1.97;;
9150;SDS011;4610;50.006;7.490;2023-04-24T08:49:06;2.60;;;1.60;;
9150;SDS011;4610;50.006;7.490;2023-04-24T08:51:33;2.67;;;1.97;;
9150;SDS011;4610;50.006;7.490;2023-04-24T08:54:02;2.73;;;1.80;;
9150;SDS011;4610;50.006;7.490;2023-04-24T08:56:30;2.43;;;1.50;;
9150;SDS011;4610;50.006;7.490;2023-04-24T08:59:00;4.10;;;1.50;;
9150;SDS011;4610;50.006;7.490;2023-04-24T09:01:27;2.23;;;1.70;;
9150;SDS011;4610;50.006;7.490;2023-04-24T09:03:55;3.27;;;1.90;;
9150;SDS011;4610;50.006;7.490;2023-04-24T09:06:24;1.60;;;1.50;;
9150;SDS011;4610;50.006;7.490;2023-04-24T09:08:52;1.97;;;1.77;;
9150;SDS011;4610;50.006;7.490;2023-04-24T09:11:20;2.40;;;1.50;;
9150;SDS011;4610;50.006;7.490;2023-04-24T09:13:49;2.13;;;1.83;;
9150;SDS011;4610;50.006;7.490;2023-04-24T09:16:17;1.70;;;1.50;;
9150;SDS011;4610;50.006;7.490;2023-04-24T09:18:45;1.70;;;1.50;;
9150;SDS011;4610;50.006;7.490;2023-04-24T09:21:12;2.33;;;1.90;;
9150;SDS011;4610;50.006;7.490;2023-04-24T09:23:41;2.77;;;1.87;;
9150;SDS011;4610;50.006;7.490;2023-04-24T09:26:08;2.27;;;1.77;;
9150;SDS011;4610;50.006;7.490;2023-04-24T09:28:36;2.37;;;1.73;;
9150;SDS011;4610;50.006;7.490;2023-04-24T09:31:05;2.87;;;2.17;;
9150;SDS011;4610;50.006;7.490;2023-04-24T09:33:33;2.80;;;1.90;;
9150;SDS011;4610;50.006;7.490;2023-04-24T09:36:00;2.73;;;1.80;;
9150;SDS011;4610;50.006;7.490;2023-04-24T09:38:31;3.70;;;2.10;;
9150;SDS011;4610;50.006;7.490;2023-04-24T09:41:01;2.40;;;1.93;;
9150;SDS011;4610;50.006;7.490;2023-04-24T09:43:30;2.33;;;1.87;;
9150;SDS011;4610;50.006;7.490;2023-04-24T09:45:57;1.70;;;1.40;;
9150;SDS011;4610;50.006;7.490;2023-04-24T09:48:32;1.57;;;1.40;;
9150;SDS011;4610;50.006;7.490;2023-04-24T09:51:00;2.43;;;1.87;;
9150;SDS011;4610;50.006;7.490;2023-04-24T09:53:29;1.70;;;1.50;;
9150;SDS011;4610;50.006;7.490;2023-04-24T09:55:56;2.47;;;1.90;;
9150;SDS011;4610;50.006;7.490;2023-04-24T09:58:34;2.43;;;1.83;;
9150;SDS011;4610;50.006;7.490;2023-04-24T10:01:01;2.17;;;1.97;;
9150;SDS011;4610;50.006;7.490;2023-04-24T10:03:29;4.03;;;2.10;;
9150;SDS011;4610;50.006;7.490;2023-04-24T10:05:58;2.83;;;2.33;;
9150;SDS011;4610;50.006;7.490;2023-04-24T10:08:25;2.80;;;2.47;;
9150;SDS011;4610;50.006;7.490;2023-04-24T10:10:58;5.07;;;2.07;;
9150;SDS011;4610;50.006;7.490;2023-04-24T10:13:27;3.63;;;2.07;;
9150;SDS011;4610;50.006;7.490;2023-04-24T10:15:54;3.10;;;2.43;;
9150;SDS011;4610;50.006;7.490;2023-04-24T10:18:25;3.47;;;2.67;;
9150;SDS011;4610;50.006;7.490;2023-04-24T10:20:53;3.13;;;2.80;;
9150;SDS011;4610;50.006;7.490;2023-04-24T10:23:21;4.23;;;2.60;;
9150;SDS011;4610;50.006;7.490;2023-04-24T10:25:48;2.90;;;2.37;;
9150;SDS011;4610;50.006;7.490;2023-04-24T10:28:16;4.13;;;2.50;;
9150;SDS011;4610;50.006;7.490;2023-04-24T10:30:46;3.97;;;2.70;;
9150;SDS011;4610;50.006;7.490;2023-04-24T10:33:14;3.00;;;2.23;;
9150;SDS011;4610;50.006;7.490;2023-04-24T10:35:44;2.53;;;2.03;;
9150;SDS011;4610;50.006;7.490;2023-04-24T10:38:14;3.90;;;2.40;;
9150;SDS011;4610;50.006;7.490;2023-04-24T10:40:44;5.03;;;2.30;;
9150;SDS011;4610;50.006;7.490;2023-04-24T10:43:11;3.13;;;2.43;;
9150;SDS011;4610;50.006;7.490;2023-04-24T10:45:43;4.03;;;2.00;;
9150;SDS011;4610;50.006;7.490;2023-04-24T10:48:29;2.63;;;2.40;;
9150;SDS011;4610;50.006;7.490;2023-04-24T10:50:57;3.13;;;2.27;;
9150;SDS011;4610;50.006;7.490;2023-04-24T10:53:24;2.60;;;2.07;;
9150;SDS011;4610;50.006;7.490;2023-04-24T10:55:56;2.90;;;2.17;;
9150;SDS011;4610;50.006;7.490;2023-04-24T10:58:25;3.47;;;2.53;;
9150;SDS011;4610;50.006;7.490;2023-04-24T11:01:04;3.47;;;2.53;;
9150;SDS011;4610;50.006;7.490;2023-04-24T11:03:32;4.67;;;2.77;;
9150;SDS011;4610;50.006;7.490;2023-04-24T11:06:01;4.10;;;2.50;;
9150;SDS011;4610;50.006;7.490;2023-04-24T11:08:30;3.03;;;2.30;;
9150;SDS011;4610;50.006;7.490;2023-04-24T11:11:00;3.50;;;2.47;;
9150;SDS011;4610;50.006;7.490;2023-04-24T11:16:30;4.47;;;2.10;;
9150;SDS011;4610;50.006;7.490;2023-04-24T11:19:04;2.83;;;2.30;;
9150;SDS011;4610;50.006;7.490;2023-04-24T11:21:32;2.50;;;2.20;;
9150;SDS011;4610;50.006;7.490;2023-04-24T11:24:21;3.03;;;2.50;;
9150;SDS011;4610;50.006;7.490;2023-04-24T11:26:56;2.80;;;2.20;;
9150;SDS011;4610;50.006;7.490;2023-04-24T11:29:38;3.10;;;2.60;;
9150;SDS011;4610;50.006;7.490;2023-04-24T11:35:01;5.03;;;2.60;;
9150;SDS011;4610;50.006;7.490;2023-04-24T11:37:33;4.40;;;2.87;;
9150;SDS011;4610;50.006;7.490;2023-04-24T11:40:01;5.00;;;2.80;;
9150;SDS011;4610;50.006;7.490;2023-04-24T11:42:29;5.60;;;2.80;;
9150;SDS011;4610;50.006;7.490;2023-04-24T11:45:00;4.57;;;2.50;;
9150;SDS011;4610;50.006;7.490;2023-04-24T11:47:27;3.73;;;2.77;;
9150;SDS011;4610;50.006;7.490;2023-04-24T11:49:56;3.93;;;3.00;;
9150;SDS011;4610;50.006;7.490;2023-04-24T11:52:24;5.33;;;3.03;;
9150;SDS011;4610;50.006;7.490;2023-04-24T11:54:50;4.83;;;2.77;;
9150;SDS011;4610;50.006;7.490;2023-04-24T11:57:18;5.13;;;3.03;;
9150;SDS011;4610;50.006;7.490;2023-04-24T11:59:46;4.63;;;2.90;;
9150;SDS011;4610;50.006;7.490;2023-04-24T12:02:20;5.43;;;3.07;;
9150;SDS011;4610;50.006;7.490;2023-04-24T12:04:50;4.37;;;3.00;;
9150;SDS011;4610;50.006;7.490;2023-04-24T12:07:19;4.10;;;2.70;;
9150;SDS011;4610;50.006;7.490;2023-04-24T12:09:46;4.87;;;3.10;;
9150;SDS011;4610;50.006;7.490;2023-04-24T12:12:15;5.27;;;3.07;;
9150;SDS011;4610;50.006;7.490;2023-04-24T12:14:44;4.17;;;2.97;;
9150;SDS011;4610;50.006;7.490;2023-04-24T12:17:13;4.53;;;3.17;;
9150;SDS011;4610;50.006;7.490;2023-04-24T12:19:44;4.57;;;3.07;;
9150;SDS011;4610;50.006;7.490;2023-04-24T12:22:12;5.70;;;3.13;;
9150;SDS011;4610;50.006;7.490;2023-04-24T12:27:23;4.47;;;3.20;;
9150;SDS011;4610;50.006;7.490;2023-04-24T12:29:53;6.73;;;3.60;;
9150;SDS011;4610;50.006;7.490;2023-04-24T12:32:21;4.60;;;3.50;;
9150;SDS011;4610;50.006;7.490;2023-04-24T12:34:49;4.67;;;3.00;;
9150;SDS011;4610;50.006;7.490;2023-04-24T12:37:16;5.00;;;3.30;;
9150;SDS011;4610;50.006;7.490;2023-04-24T12:39:44;4.27;;;2.90;;
9150;SDS011;4610;50.006;7.490;2023-04-24T12:42:26;6.97;;;3.50;;
9150;SDS011;4610;50.006;7.490;2023-04-24T12:44:56;5.50;;;2.60;;
9150;SDS011;4610;50.006;7.490;2023-04-24T12:47:24;5.20;;;2.93;;
9150;SDS011;4610;50.006;7.490;2023-04-24T12:49:51;6.13;;;3.00;;
9150;SDS011;4610;50.006;7.490;2023-04-24T12:52:18;4.80;;;2.70;;
9150;SDS011;4610;50.006;7.490;2023-04-24T12:54:46;3.87;;;2.70;;
9150;SDS011;4610;50.006;7.490;2023-04-24T12:57:14;4.83;;;3.00;;
9150;SDS011;4610;50.006;7.490;2023-04-24T12:59:40;7.00;;;3.10;;
9150;SDS011;4610;50.006;7.490;2023-04-24T13:02:08;4.60;;;2.37;;
9150;SDS011;4610;50.006;7.490;2023-04-24T13:04:35;4.37;;;2.83;;
9150;SDS011;4610;50.006;7.490;2023-04-24T13:07:02;6.33;;;2.80;;
9150;SDS011;4610;50.006;7.490;2023-04-24T13:09:29;4.00;;;3.03;;
9150;SDS011;4610;50.006;7.490;2023-04-24T13:11:56;5.73;;;2.90;;
9150;SDS011;4610;50.006;7.490;2023-04-24T13:14:24;4.47;;;2.77;;
9150;SDS011;4610;50.006;7.490;2023-04-24T13:16:51;7.30;;;3.40;;
9150;SDS011;4610;50.006;7.490;2023-04-24T13:19:18;8.47;;;3.00;;
9150;SDS011;4610;50.006;7.490;2023-04-24T13:21:45;5.90;;;2.87;;
9150;SDS011;4610;50.006;7.490;2023-04-24T13:24:11;6.00;;;2.87;;
9150;SDS011;4610;50.006;7.490;2023-04-24T13:26:40;5.47;;;3.30;;
9150;SDS011;4610;50.006;7.490;2023-04-24T13:29:07;4.87;;;2.80;;
9150;SDS011;4610;50.006;7.490;2023-04-24T13:31:35;5.17;;;2.70;;
9150;SDS011;4610;50.006;7.490;2023-04-24T13:34:02;8.97;;;3.60;;
9150;SDS011;4610;50.006;7.490;2023-04-24T13:36:29;5.60;;;3.00;;
9150;SDS011;4610;50.006;7.490;2023-04-24T13:38:56;3.93;;;2.50;;
9150;SDS011;4610;50.006;7.490;2023-04-24T13:41:23;4.57;;;2.50;;
9150;SDS011;4610;50.006;7.490;2023-04-24T13:43:50;3.70;;;2.60;;
9150;SDS011;4610;50.006;7.490;2023-04-24T13:46:17;6.30;;;2.80;;
9150;SDS011;4610;50.006;7.490;2023-04-24T13:48:45;4.90;;;2.87;;
9150;SDS011;4610;50.006;7.490;2023-04-24T13:51:12;5.50;;;2.30;;
9150;SDS011;4610;50.006;7.490;2023-04-24T13:53:38;5.23;;;2.90;;
9150;SDS011;4610;50.006;7.490;2023-04-24T13:56:05;5.07;;;2.87;;
9150;SDS011;4610;50.006;7.490;2023-04-24T13:58:32;3.97;;;2.73;;
9150;SDS011;4610;50.006;7.490;2023-04-24T14:00:59;5.53;;;3.10;;
9150;SDS011;4610;50.006;7.490;2023-04-24T14:03:26;3.23;;;2.70;;
9150;SDS011;4610;50.006;7.490;2023-04-24T14:05:54;3.23;;;2.80;;
9150;SDS011;4610;50.006;7.490;2023-04-24T14:08:21;4.70;;;3.13;;
9150;SDS011;4610;50.006;7.490;2023-04-24T14:10:48;4.63;;;3.17;;
9150;SDS011;4610;50.006;7.490;2023-04-24T14:13:15;5.97;;;2.93;;
9150;SDS011;4610;50.006;7.490;2023-04-24T14:15:42;6.43;;;3.17;;
9150;SDS011;4610;50.006;7.490;2023-04-24T14:18:09;5.33;;;2.87;;
9150;SDS011;4610;50.006;7.490;2023-04-24T14:20:36;6.03;;;2.97;;
9150;SDS011;4610;50.006;7.490;2023-04-24T14:23:04;5.00;;;3.20;;
9150;SDS011;4610;50.006;7.490;2023-04-24T14:25:31;5.00;;;3.30;;
9150;SDS011;4610;50.006;7.490;2023-04-24T14:27:57;3.43;;;2.50;;
9150;SDS011;4610;50.006;7.490;2023-04-24T14:30:24;4.53;;;3.10;;
9150;SDS011;4610;50.006;7.490;2023-04-24T14:32:51;4.83;;;3.00;;
9150;SDS011;4610;50.006;7.490;2023-04-24T14:35:18;4.63;;;3.17;;
9150;SDS011;4610;50.006;7.490;2023-04-24T14:37:45;4.87;;;2.93;;
9150;SDS011;4610;50.006;7.490;2023-04-24T14:40:14;4.37;;;2.80;;
9150;SDS011;4610;50.006;7.490;2023-04-24T14:42:41;6.43;;;3.10;;
9150;SDS011;4610;50.006;7.490;2023-04-24T14:45:08;3.77;;;2.90;;
9150;SDS011;4610;50.006;7.490;2023-04-24T14:47:36;5.10;;;3.07;;
9150;SDS011;4610;50.006;7.490;2023-04-24T14:50:03;4.60;;;3.10;;
9150;SDS011;4610;50.006;7.490;2023-04-24T14:52:30;6.57;;;3.33;;
9150;SDS011;4610;50.006;7.490;2023-04-24T14:54:57;4.00;;;3.10;;
9150;SDS011;4610;50.006;7.490;2023-04-24T14:57:25;5.93;;;3.80;;
9150;SDS011;4610;50.006;7.490;2023-04-24T14:59:52;6.27;;;2.80;;
9150;SDS011;4610;50.006;7.490;2023-04-24T15:02:19;6.90;;;3.27;;
9150;SDS011;4610;50.006;7.490;2023-04-24T15:04:46;4.80;;;3.20;;
9150;SDS011;4610;50.006;7.490;2023-04-24T15:07:12;6.30;;;3.10;;
9150;SDS011;4610;50.006;7.490;2023-04-24T15:09:39;4.93;;;3.30;;
9150;SDS011;4610;50.006;7.490;2023-04-24T15:12:08;5.67;;;3.27;;
9150;SDS011;4610;50.006;7.490;2023-04-24T15:14:36;4.53;;;3.37;;
9150;SDS011;4610;50.006;7.490;2023-04-24T15:17:03;5.67;;;3.60;;
9150;SDS011;4610;50.006;7.490;2023-04-24T15:19:30;2.53;;;2.30;;
9150;SDS011;4610;50.006;7.490;2023-04-24T15:21:57;2.67;;;2.20;;
9150;SDS011;4610;50.006;7.490;2023-04-24T15:24:24;2.90;;;2.13;;
9150;SDS011;4610;50.006;7.490;2023-04-24T15:26:51;3.20;;;2.20;;